sensor_id;sensor_type;location;lat;lon;timestamp;P1;durP1;ratioP1;P2;durP2;ratioP2
6665;SDS011;3369;49.906;8.598;2024-01-15T00:02:11;35.97;;;15.77;;
6665;SDS011;3369;49.906;8.598;2024-01-15T00:04:37;29.57;;;15.40;;
6665;SDS011;3369;49.906;8.598;2024-01-15T00:07:06;31.47;;;17.07;;
6665;SDS011;3369;49.906;8.598;2024-01-15T00:09:33;36.13;;;17.87;;
6665;SDS011;3369;49.906;8.598;2024-01-15T00:11:59;34.67;;;16.43;;
6665;SDS011;3369;49.906;8.598;2024-01-15T00:14:25;29.23;;;14.70;;
6665;SDS011;3369;49.906;8.598;2024-01-15T00:16:51;29.30;;;15.83;;
6665;SDS011;3369;49.906;8.598;2024-01-15T00:19:17;33.50;;;16.83;;
6665;SDS011;3369;49.906;8.598;2024-01-15T00:21:44;32.17;;;16.40;;
6665;SDS011;3369;49.906;8.598;2024-01-15T00:24:10;37.87;;;16.50;;
6665;SDS011;3369;49.906;8.598;2024-01-15T00:26:35;30.27;;;16.07;;
6665;SDS011;3369;49.906;8.598;2024-01-15T00:29:01;29.87;;;15.20;;
6665;SDS011;3369;49.906;8.598;2024-01-15T00:31:28;30.93;;;15.27;;
6665;SDS011;3369;49.906;8.598;2024-01-15T00:33:55;39.00;;;16.37;;
6665;SDS011;3369;49.906;8.598;2024-01-15T00:36:20;31.73;;;16.10;;
6665;SDS011;3369;49.906;8.598;2024-01-15T00:38:46;33.80;;;16.70;;
6665;SDS011;3369;49.906;8.598;2024-01-15T00:41:12;33.83;;;15.43;;
6665;SDS011;3369;49.906;8.598;2024-01-15T00:43:38;29.40;;;15.20;;
6665;SDS011;3369;49.906;8.598;2024-01-15T00:46:04;35.50;;;16.90;;
6665;SDS011;3369;49.906;8.598;2024-01-15T00:48:30;41.43;;;16.63;;
6665;SDS011;3369;49.906;8.598;2024-01-15T00:50:56;38.60;;;16.47;;
6665;SDS011;3369;49.906;8.598;2024-01-15T00:53:21;30.93;;;16.17;;
6665;SDS011;3369;49.906;8.598;2024-01-15T00:55:47;36.70;;;17.37;;
6665;SDS011;3369;49.906;8.598;2024-01-15T00:58:13;33.27;;;15.63;;
6665;SDS011;3369;49.906;8.598;2024-01-15T01:00:39;33.60;;;15.87;;
6665;SDS011;3369;49.906;8.598;2024-01-15T01:03:05;33.90;;;17.20;;
6665;SDS011;3369;49.906;8.598;2024-01-15T01:05:31;31.70;;;14.40;;
6665;SDS011;3369;49.906;8.598;2024-01-15T01:07:58;33.77;;;15.87;;
6665;SDS011;3369;49.906;8.598;2024-01-15T01:10:23;38.23;;;17.10;;
6665;SDS011;3369;49.906;8.598;2024-01-15T01:12:49;37.13;;;17.60;;
6665;SDS011;3369;49.906;8.598;2024-01-15T01:15:14;35.43;;;15.43;;
6665;SDS011;3369;49.906;8.598;2024-01-15T01:17:40;36.40;;;16.23;;
6665;SDS011;3369;49.906;8.598;2024-01-15T01:20:06;34.13;;;16.93;;
6665;SDS011;3369;49.906;8.598;2024-01-15T01:22:34;43.13;;;17.20;;
6665;SDS011;3369;49.906;8.598;2024-01-15T01:25:00;32.33;;;17.10;;
6665;SDS011;3369;49.906;8.598;2024-01-15T01:27:26;37.23;;;16.73;;
6665;SDS011;3369;49.906;8.598;2024-01-15T01:29:51;37.40;;;16.80;;
6665;SDS011;3369;49.906;8.598;2024-01-15T01:32:17;34.20;;;17.07;;
6665;SDS011;3369;49.906;8.598;2024-01-15T01:34:43;32.47;;;16.23;;
6665;SDS011;3369;49.906;8.598;2024-01-15T01:37:12;35.03;;;16.20;;
6665;SDS011;3369;49.906;8.598;2024-01-15T01:39:41;32.27;;;16.20;;
6665;SDS011;3369;49.906;8.598;2024-01-15T01:42:07;32.87;;;16.07;;
6665;SDS011;3369;49.906;8.598;2024-01-15T01:44:33;30.37;;;15.83;;
6665;SDS011;3369;49.906;8.598;2024-01-15T01:46:58;33.90;;;15.30;;
6665;SDS011;3369;49.906;8.598;2024-01-15T01:49:25;32.60;;;15.73;;
6665;SDS011;3369;49.906;8.598;2024-01-15T01:51:51;33.87;;;14.73;;
6665;SDS011;3369;49.906;8.598;2024-01-15T01:54:18;34.67;;;16.30;;
6665;SDS011;3369;49.906;8.598;2024-01-15T01:56:45;29.07;;;15.40;;
6665;SDS011;3369;49.906;8.598;2024-01-15T01:59:13;35.80;;;16.87;;
6665;SDS011;3369;49.906;8.598;2024-01-15T02:01:39;29.03;;;14.33;;
6665;SDS011;3369;49.906;8.598;2024-01-15T02:04:05;33.47;;;17.03;;
6665;SDS011;3369;49.906;8.598;2024-01-15T02:06:31;35.03;;;16.97;;
6665;SDS011;3369;49.906;8.598;2024-01-15T02:08:57;31.73;;;16.00;;
6665;SDS011;3369;49.906;8.598;2024-01-15T02:11:22;35.23;;;15.47;;
6665;SDS011;3369;49.906;8.598;2024-01-15T02:13:48;38.77;;;16.87;;
6665;SDS011;3369;49.906;8.598;2024-01-15T02:16:14;36.63;;;16.27;;
6665;SDS011;3369;49.906;8.598;2024-01-15T02:18:43;35.37;;;16.17;;
6665;SDS011;3369;49.906;8.598;2024-01-15T02:21:10;33.80;;;15.70;;
6665;SDS011;3369;49.906;8.598;2024-01-15T02:23:36;33.90;;;16.70;;
6665;SDS011;3369;49.906;8.598;2024-01-15T02:26:02;33.47;;;15.97;;
6665;SDS011;3369;49.906;8.598;2024-01-15T02:28:29;37.27;;;17.40;;
6665;SDS011;3369;49.906;8.598;2024-01-15T02:30:54;36.60;;;16.53;;
6665;SDS011;3369;49.906;8.598;2024-01-15T02:33:20;38.70;;;17.33;;
6665;SDS011;3369;49.906;8.598;2024-01-15T02:35:46;35.07;;;16.10;;
6665;SDS011;3369;49.906;8.598;2024-01-15T02:38:15;30.27;;;15.07;;
6665;SDS011;3369;49.906;8.598;2024-01-15T02:40:40;34.13;;;15.67;;
6665;SDS011;3369;49.906;8.598;2024-01-15T02:43:06;35.83;;;16.13;;
6665;SDS011;3369;49.906;8.598;2024-01-15T02:45:32;31.60;;;15.80;;
6665;SDS011;3369;49.906;8.598;2024-01-15T02:47:57;33.43;;;16.07;;
6665;SDS011;3369;49.906;8.598;2024-01-15T02:50:23;30.00;;;15.33;;
6665;SDS011;3369;49.906;8.598;2024-01-15T02:52:48;32.47;;;15.10;;
6665;SDS011;3369;49.906;8.598;2024-01-15T02:55:14;30.40;;;14.67;;
6665;SDS011;3369;49.906;8.598;2024-01-15T02:57:39;39.23;;;15.77;;
6665;SDS011;3369;49.906;8.598;2024-01-15T03:00:05;33.83;;;15.47;;
6665;SDS011;3369;49.906;8.598;2024-01-15T03:02:32;36.93;;;15.57;;
6665;SDS011;3369;49.906;8.598;2024-01-15T03:04:58;29.20;;;15.50;;
6665;SDS011;3369;49.906;8.598;2024-01-15T03:07:23;37.80;;;17.10;;
6665;SDS011;3369;49.906;8.598;2024-01-15T03:09:49;32.53;;;15.30;;
6665;SDS011;3369;49.906;8.598;2024-01-15T03:12:14;30.33;;;14.27;;
6665;SDS011;3369;49.906;8.598;2024-01-15T03:14:40;31.43;;;14.70;;
6665;SDS011;3369;49.906;8.598;2024-01-15T03:17:06;33.90;;;15.13;;
6665;SDS011;3369;49.906;8.598;2024-01-15T03:19:34;33.00;;;15.87;;
6665;SDS011;3369;49.906;8.598;2024-01-15T03:22:00;35.77;;;14.80;;
6665;SDS011;3369;49.906;8.598;2024-01-15T03:24:27;32.13;;;14.30;;
6665;SDS011;3369;49.906;8.598;2024-01-15T03:26:53;32.73;;;16.23;;
6665;SDS011;3369;49.906;8.598;2024-01-15T03:29:18;32.30;;;14.77;;
6665;SDS011;3369;49.906;8.598;2024-01-15T03:31:44;33.87;;;15.53;;
6665;SDS011;3369;49.906;8.598;2024-01-15T03:34:10;34.27;;;15.73;;
6665;SDS011;3369;49.906;8.598;2024-01-15T03:36:36;37.77;;;15.63;;
6665;SDS011;3369;49.906;8.598;2024-01-15T03:39:02;37.47;;;15.67;;
6665;SDS011;3369;49.906;8.598;2024-01-15T03:41:27;34.43;;;16.03;;
6665;SDS011;3369;49.906;8.598;2024-01-15T03:43:53;32.27;;;15.63;;
6665;SDS011;3369;49.906;8.598;2024-01-15T03:46:18;32.10;;;16.27;;
6665;SDS011;3369;49.906;8.598;2024-01-15T03:48:44;33.37;;;14.20;;
6665;SDS011;3369;49.906;8.598;2024-01-15T03:51:09;30.30;;;15.23;;
6665;SDS011;3369;49.906;8.598;2024-01-15T03:53:35;30.17;;;14.77;;
6665;SDS011;3369;49.906;8.598;2024-01-15T03:56:02;34.27;;;15.93;;
6665;SDS011;3369;49.906;8.598;2024-01-15T03:58:28;29.27;;;14.60;;
6665;SDS011;3369;49.906;8.598;2024-01-15T04:00:54;32.33;;;14.80;;
6665;SDS011;3369;49.906;8.598;2024-01-15T04:03:19;29.00;;;14.47;;
6665;SDS011;3369;49.906;8.598;2024-01-15T04:05:45;29.73;;;14.47;;
6665;SDS011;3369;49.906;8.598;2024-01-15T04:08:10;27.03;;;13.90;;
6665;SDS011;3369;49.906;8.598;2024-01-15T04:10:36;31.07;;;14.73;;
6665;SDS011;3369;49.906;8.598;2024-01-15T04:13:02;33.23;;;14.77;;
6665;SDS011;3369;49.906;8.598;2024-01-15T04:15:28;31.00;;;14.20;;
6665;SDS011;3369;49.906;8.598;2024-01-15T04:17:55;31.87;;;14.10;;
6665;SDS011;3369;49.906;8.598;2024-01-15T04:20:21;25.40;;;13.70;;
6665;SDS011;3369;49.906;8.598;2024-01-15T04:22:46;28.63;;;13.87;;
6665;SDS011;3369;49.906;8.598;2024-01-15T04:25:12;28.73;;;14.70;;
6665;SDS011;3369;49.906;8.598;2024-01-15T04:27:37;31.90;;;13.97;;
6665;SDS011;3369;49.906;8.598;2024-01-15T04:30:03;28.77;;;13.40;;
6665;SDS011;3369;49.906;8.598;2024-01-15T04:32:29;26.57;;;13.10;;
6665;SDS011;3369;49.906;8.598;2024-01-15T04:34:55;27.60;;;13.47;;
6665;SDS011;3369;49.906;8.598;2024-01-15T04:37:20;25.63;;;13.70;;
6665;SDS011;3369;49.906;8.598;2024-01-15T04:39:46;23.83;;;12.43;;
6665;SDS011;3369;49.906;8.598;2024-01-15T04:42:11;25.63;;;13.70;;
6665;SDS011;3369;49.906;8.598;2024-01-15T04:44:37;33.83;;;14.13;;
6665;SDS011;3369;49.906;8.598;2024-01-15T04:47:02;30.37;;;13.53;;
6665;SDS011;3369;49.906;8.598;2024-01-15T04:49:28;30.97;;;12.93;;
6665;SDS011;3369;49.906;8.598;2024-01-15T04:51:54;26.00;;;13.10;;
6665;SDS011;3369;49.906;8.598;2024-01-15T04:54:20;28.60;;;13.90;;
6665;SDS011;3369;49.906;8.598;2024-01-15T04:56:46;25.33;;;13.20;;
6665;SDS011;3369;49.906;8.598;2024-01-15T04:59:12;27.17;;;12.87;;
6665;SDS011;3369;49.906;8.598;2024-01-15T05:01:39;27.57;;;12.13;;
6665;SDS011;3369;49.906;8.598;2024-01-15T05:04:05;27.63;;;13.20;;
6665;SDS011;3369;49.906;8.598;2024-01-15T05:06:30;27.77;;;12.77;;
6665;SDS011;3369;49.906;8.598;2024-01-15T05:08:56;36.43;;;14.27;;
6665;SDS011;3369;49.906;8.598;2024-01-15T05:11:22;23.63;;;12.87;;
6665;SDS011;3369;49.906;8.598;2024-01-15T05:13:47;27.60;;;13.47;;
6665;SDS011;3369;49.906;8.598;2024-01-15T05:16:13;28.37;;;12.67;;
6665;SDS011;3369;49.906;8.598;2024-01-15T05:18:39;23.33;;;11.90;;
6665;SDS011;3369;49.906;8.598;2024-01-15T05:21:04;29.10;;;12.43;;
6665;SDS011;3369;49.906;8.598;2024-01-15T05:23:31;27.60;;;12.33;;
6665;SDS011;3369;49.906;8.598;2024-01-15T05:25:57;25.80;;;12.27;;
6665;SDS011;3369;49.906;8.598;2024-01-15T05:28:22;27.27;;;13.60;;
6665;SDS011;3369;49.906;8.598;2024-01-15T05:30:48;29.23;;;13.67;;
6665;SDS011;3369;49.906;8.598;2024-01-15T05:33:15;25.13;;;12.77;;
6665;SDS011;3369;49.906;8.598;2024-01-15T05:35:41;24.10;;;11.80;;
6665;SDS011;3369;49.906;8.598;2024-01-15T05:38:07;25.57;;;13.03;;
6665;SDS011;3369;49.906;8.598;2024-01-15T05:40:32;28.33;;;13.67;;
6665;SDS011;3369;49.906;8.598;2024-01-15T05:42:58;32.73;;;14.10;;
6665;SDS011;3369;49.906;8.598;2024-01-15T05:45:25;23.70;;;12.97;;
6665;SDS011;3369;49.906;8.598;2024-01-15T05:47:51;29.27;;;13.53;;
6665;SDS011;3369;49.906;8.598;2024-01-15T05:50:17;27.00;;;13.23;;
6665;SDS011;3369;49.906;8.598;2024-01-15T05:52:43;25.73;;;12.43;;
6665;SDS011;3369;49.906;8.598;2024-01-15T05:55:08;30.43;;;13.50;;
6665;SDS011;3369;49.906;8.598;2024-01-15T05:57:35;29.77;;;13.93;;
6665;SDS011;3369;49.906;8.598;2024-01-15T06:00:01;28.50;;;14.37;;
6665;SDS011;3369;49.906;8.598;2024-01-15T06:02:27;30.63;;;14.33;;
6665;SDS011;3369;49.906;8.598;2024-01-15T06:04:53;32.17;;;14.13;;
6665;SDS011;3369;49.906;8.598;2024-01-15T06:07:18;30.40;;;13.90;;
6665;SDS011;3369;49.906;8.598;2024-01-15T06:09:44;32.57;;;14.73;;
6665;SDS011;3369;49.906;8.598;2024-01-15T06:12:10;27.80;;;13.47;;
6665;SDS011;3369;49.906;8.598;2024-01-15T06:14:35;30.80;;;13.83;;
6665;SDS011;3369;49.906;8.598;2024-01-15T06:17:01;35.00;;;14.97;;
6665;SDS011;3369;49.906;8.598;2024-01-15T06:19:26;30.33;;;14.37;;
6665;SDS011;3369;49.906;8.598;2024-01-15T06:21:52;30.57;;;14.47;;
6665;SDS011;3369;49.906;8.598;2024-01-15T06:24:17;28.50;;;13.83;;
6665;SDS011;3369;49.906;8.598;2024-01-15T06:26:46;29.47;;;14.73;;
6665;SDS011;3369;49.906;8.598;2024-01-15T06:29:11;30.37;;;15.77;;
6665;SDS011;3369;49.906;8.598;2024-01-15T06:31:37;30.80;;;15.13;;
6665;SDS011;3369;49.906;8.598;2024-01-15T06:34:03;28.63;;;13.30;;
6665;SDS011;3369;49.906;8.598;2024-01-15T06:36:28;25.40;;;13.27;;
6665;SDS011;3369;49.906;8.598;2024-01-15T06:38:54;30.37;;;15.17;;
6665;SDS011;3369;49.906;8.598;2024-01-15T06:41:19;33.93;;;14.57;;
6665;SDS011;3369;49.906;8.598;2024-01-15T06:43:45;28.27;;;14.17;;
6665;SDS011;3369;49.906;8.598;2024-01-15T06:46:10;30.57;;;14.93;;
6665;SDS011;3369;49.906;8.598;2024-01-15T06:48:36;30.83;;;14.37;;
6665;SDS011;3369;49.906;8.598;2024-01-15T06:51:02;23.57;;;13.20;;
6665;SDS011;3369;49.906;8.598;2024-01-15T06:53:27;22.60;;;13.23;;
6665;SDS011;3369;49.906;8.598;2024-01-15T06:55:53;26.17;;;12.77;;
6665;SDS011;3369;49.906;8.598;2024-01-15T06:58:18;24.33;;;12.50;;
6665;SDS011;3369;49.906;8.598;2024-01-15T07:00:44;24.27;;;12.90;;
6665;SDS011;3369;49.906;8.598;2024-01-15T07:03:10;23.67;;;13.57;;
6665;SDS011;3369;49.906;8.598;2024-01-15T07:05:35;27.67;;;13.20;;
6665;SDS011;3369;49.906;8.598;2024-01-15T07:08:02;25.57;;;12.80;;
6665;SDS011;3369;49.906;8.598;2024-01-15T07:10:28;22.70;;;12.40;;
6665;SDS011;3369;49.906;8.598;2024-01-15T07:12:54;23.90;;;13.07;;
6665;SDS011;3369;49.906;8.598;2024-01-15T07:15:19;25.23;;;12.90;;
6665;SDS011;3369;49.906;8.598;2024-01-15T07:17:45;26.20;;;13.17;;
6665;SDS011;3369;49.906;8.598;2024-01-15T07:20:11;27.50;;;14.13;;
6665;SDS011;3369;49.906;8.598;2024-01-15T07:22:36;25.40;;;12.90;;
6665;SDS011;3369;49.906;8.598;2024-01-15T07:25:02;22.97;;;13.93;;
6665;SDS011;3369;49.906;8.598;2024-01-15T07:27:29;26.60;;;13.43;;
6665;SDS011;3369;49.906;8.598;2024-01-15T07:29:56;27.37;;;13.67;;
6665;SDS011;3369;49.906;8.598;2024-01-15T07:32:22;25.13;;;13.97;;
6665;SDS011;3369;49.906;8.598;2024-01-15T07:34:47;29.90;;;14.37;;
6665;SDS011;3369;49.906;8.598;2024-01-15T07:37:14;28.10;;;13.10;;
6665;SDS011;3369;49.906;8.598;2024-01-15T07:39:39;27.53;;;14.60;;
6665;SDS011;3369;49.906;8.598;2024-01-15T07:42:05;31.23;;;13.93;;
6665;SDS011;3369;49.906;8.598;2024-01-15T07:44:31;26.70;;;12.50;;
6665;SDS011;3369;49.906;8.598;2024-01-15T07:46:56;23.80;;;12.93;;
6665;SDS011;3369;49.906;8.598;2024-01-15T07:49:22;24.50;;;13.60;;
6665;SDS011;3369;49.906;8.598;2024-01-15T07:51:48;28.90;;;14.63;;
6665;SDS011;3369;49.906;8.598;2024-01-15T07:54:14;22.87;;;12.00;;
6665;SDS011;3369;49.906;8.598;2024-01-15T07:57:13;24.77;;;13.80;;
6665;SDS011;3369;49.906;8.598;2024-01-15T07:59:31;28.10;;;13.07;;
6665;SDS011;3369;49.906;8.598;2024-01-15T08:01:58;26.93;;;14.17;;
6665;SDS011;3369;49.906;8.598;2024-01-15T08:04:24;27.53;;;14.33;;
6665;SDS011;3369;49.906;8.598;2024-01-15T08:06:50;24.03;;;13.77;;
6665;SDS011;3369;49.906;8.598;2024-01-15T08:09:16;30.83;;;15.30;;
6665;SDS011;3369;49.906;8.598;2024-01-15T08:11:42;27.43;;;14.93;;
6665;SDS011;3369;49.906;8.598;2024-01-15T08:14:08;27.33;;;14.30;;
6665;SDS011;3369;49.906;8.598;2024-01-15T08:16:35;24.87;;;13.57;;
6665;SDS011;3369;49.906;8.598;2024-01-15T08:19:01;25.33;;;13.80;;
6665;SDS011;3369;49.906;8.598;2024-01-15T08:21:26;26.87;;;15.37;;
6665;SDS011;3369;49.906;8.598;2024-01-15T08:23:56;27.30;;;14.40;;
6665;SDS011;3369;49.906;8.598;2024-01-15T08:26:23;26.63;;;13.73;;
6665;SDS011;3369;49.906;8.598;2024-01-15T08:28:49;25.33;;;13.90;;
6665;SDS011;3369;49.906;8.598;2024-01-15T08:31:14;25.67;;;13.87;;
6665;SDS011;3369;49.906;8.598;2024-01-15T08:33:40;22.53;;;13.00;;
6665;SDS011;3369;49.906;8.598;2024-01-15T08:36:06;27.47;;;15.03;;
6665;SDS011;3369;49.906;8.598;2024-01-15T08:38:31;21.83;;;13.03;;
6665;SDS011;3369;49.906;8.598;2024-01-15T08:40:57;25.87;;;13.17;;
6665;SDS011;3369;49.906;8.598;2024-01-15T08:43:25;28.27;;;13.53;;
6665;SDS011;3369;49.906;8.598;2024-01-15T08:45:51;27.23;;;14.37;;
6665;SDS011;3369;49.906;8.598;2024-01-15T08:48:17;29.73;;;15.00;;
6665;SDS011;3369;49.906;8.598;2024-01-15T08:50:43;27.87;;;14.40;;
6665;SDS011;3369;49.906;8.598;2024-01-15T08:53:12;24.53;;;13.17;;
6665;SDS011;3369;49.906;8.598;2024-01-15T08:55:38;19.63;;;11.77;;
6665;SDS011;3369;49.906;8.598;2024-01-15T08:58:04;21.93;;;12.23;;
6665;SDS011;3369;49.906;8.598;2024-01-15T09:00:31;25.87;;;13.40;;
6665;SDS011;3369;49.906;8.598;2024-01-15T09:02:56;22.10;;;12.37;;
6665;SDS011;3369;49.906;8.598;2024-01-15T09:05:22;24.17;;;13.60;;
6665;SDS011;3369;49.906;8.598;2024-01-15T09:07:48;23.80;;;14.10;;
6665;SDS011;3369;49.906;8.598;2024-01-15T09:10:16;22.93;;;13.70;;
6665;SDS011;3369;49.906;8.598;2024-01-15T09:12:42;21.27;;;12.83;;
6665;SDS011;3369;49.906;8.598;2024-01-15T09:15:07;22.50;;;12.53;;
6665;SDS011;3369;49.906;8.598;2024-01-15T09:17:33;24.13;;;13.40;;
6665;SDS011;3369;49.906;8.598;2024-01-15T09:19:59;24.90;;;13.93;;
6665;SDS011;3369;49.906;8.598;2024-01-15T09:22:25;26.20;;;14.00;;
6665;SDS011;3369;49.906;8.598;2024-01-15T09:24:51;21.80;;;12.93;;
6665;SDS011;3369;49.906;8.598;2024-01-15T09:27:16;27.90;;;15.17;;
6665;SDS011;3369;49.906;8.598;2024-01-15T09:29:42;24.87;;;13.10;;
6665;SDS011;3369;49.906;8.598;2024-01-15T09:32:10;23.60;;;13.30;;
6665;SDS011;3369;49.906;8.598;2024-01-15T09:34:37;24.00;;;13.97;;
6665;SDS011;3369;49.906;8.598;2024-01-15T09:37:02;25.40;;;14.40;;
6665;SDS011;3369;49.906;8.598;2024-01-15T09:39:29;22.87;;;13.93;;
6665;SDS011;3369;49.906;8.598;2024-01-15T09:41:55;23.70;;;13.43;;
6665;SDS011;3369;49.906;8.598;2024-01-15T09:44:22;25.70;;;13.53;;
6665;SDS011;3369;49.906;8.598;2024-01-15T09:46:48;24.63;;;13.93;;
6665;SDS011;3369;49.906;8.598;2024-01-15T09:49:15;24.70;;;12.97;;
6665;SDS011;3369;49.906;8.598;2024-01-15T09:51:41;24.00;;;13.90;;
6665;SDS011;3369;49.906;8.598;2024-01-15T09:54:08;23.17;;;13.13;;
6665;SDS011;3369;49.906;8.598;2024-01-15T09:56:34;26.43;;;14.30;;
6665;SDS011;3369;49.906;8.598;2024-01-15T09:59:00;25.30;;;14.77;;
6665;SDS011;3369;49.906;8.598;2024-01-15T10:01:26;24.67;;;13.77;;
6665;SDS011;3369;49.906;8.598;2024-01-15T10:03:54;24.63;;;14.03;;
6665;SDS011;3369;49.906;8.598;2024-01-15T10:06:21;22.13;;;14.47;;
6665;SDS011;3369;49.906;8.598;2024-01-15T10:08:47;24.63;;;14.80;;
6665;SDS011;3369;49.906;8.598;2024-01-15T10:11:14;20.10;;;12.63;;
6665;SDS011;3369;49.906;8.598;2024-01-15T10:13:40;23.53;;;14.40;;
6665;SDS011;3369;49.906;8.598;2024-01-15T10:16:06;22.43;;;12.77;;
6665;SDS011;3369;49.906;8.598;2024-01-15T10:18:32;23.90;;;13.97;;
6665;SDS011;3369;49.906;8.598;2024-01-15T10:21:01;22.50;;;13.57;;
6665;SDS011;3369;49.906;8.598;2024-01-15T10:23:33;22.33;;;13.50;;
6665;SDS011;3369;49.906;8.598;2024-01-15T10:25:59;24.27;;;13.90;;
6665;SDS011;3369;49.906;8.598;2024-01-15T10:28:26;21.83;;;13.17;;
6665;SDS011;3369;49.906;8.598;2024-01-15T10:30:52;24.57;;;13.20;;
6665;SDS011;3369;49.906;8.598;2024-01-15T10:33:22;22.90;;;13.50;;
6665;SDS011;3369;49.906;8.598;2024-01-15T10:36:00;22.17;;;13.37;;
6665;SDS011;3369;49.906;8.598;2024-01-15T10:38:26;21.73;;;12.87;;
6665;SDS011;3369;49.906;8.598;2024-01-15T10:40:52;22.97;;;13.20;;
6665;SDS011;3369;49.906;8.598;2024-01-15T10:43:22;22.33;;;13.20;;
6665;SDS011;3369;49.906;8.598;2024-01-15T10:45:50;18.13;;;12.27;;
6665;SDS011;3369;49.906;8.598;2024-01-15T10:48:16;21.90;;;12.87;;
6665;SDS011;3369;49.906;8.598;2024-01-15T10:50:44;22.13;;;13.47;;
6665;SDS011;3369;49.906;8.598;2024-01-15T10:53:14;20.93;;;13.10;;
6665;SDS011;3369;49.906;8.598;2024-01-15T10:55:41;23.40;;;14.23;;
6665;SDS011;3369;49.906;8.598;2024-01-15T10:58:08;20.63;;;11.93;;
6665;SDS011;3369;49.906;8.598;2024-01-15T11:00:37;20.60;;;11.83;;
6665;SDS011;3369;49.906;8.598;2024-01-15T11:03:04;18.03;;;11.67;;
6665;SDS011;3369;49.906;8.598;2024-01-15T11:05:36;18.40;;;10.23;;
6665;SDS011;3369;49.906;8.598;2024-01-15T11:08:05;14.17;;;9.27;;
6665;SDS011;3369;49.906;8.598;2024-01-15T11:10:37;13.83;;;9.53;;
6665;SDS011;3369;49.906;8.598;2024-01-15T11:16:06;15.90;;;10.17;;
6665;SDS011;3369;49.906;8.598;2024-01-15T11:18:36;15.53;;;9.70;;
6665;SDS011;3369;49.906;8.598;2024-01-15T11:23:44;16.17;;;10.67;;
6665;SDS011;3369;49.906;8.598;2024-01-15T11:29:06;14.57;;;9.43;;
6665;SDS011;3369;49.906;8.598;2024-01-15T11:34:05;14.67;;;9.50;;
6665;SDS011;3369;49.906;8.598;2024-01-15T11:40:00;13.30;;;8.30;;
6665;SDS011;3369;49.906;8.598;2024-01-15T11:42:07;12.70;;;8.10;;
6665;SDS011;3369;49.906;8.598;2024-01-15T11:44:34;14.43;;;8.60;;
6665;SDS011;3369;49.906;8.598;2024-01-15T11:47:00;14.43;;;9.03;;
6665;SDS011;3369;49.906;8.598;2024-01-15T11:52:16;11.30;;;8.00;;
6665;SDS011;3369;49.906;8.598;2024-01-15T11:55:26;10.77;;;7.77;;
6665;SDS011;3369;49.906;8.598;2024-01-15T11:57:45;15.07;;;8.33;;
6665;SDS011;3369;49.906;8.598;2024-01-15T12:00:20;11.00;;;7.13;;
6665;SDS011;3369;49.906;8.598;2024-01-15T12:02:48;11.57;;;8.00;;
6665;SDS011;3369;49.906;8.598;2024-01-15T12:05:15;13.23;;;8.80;;
6665;SDS011;3369;49.906;8.598;2024-01-15T12:07:41;11.10;;;7.70;;
6665;SDS011;3369;49.906;8.598;2024-01-15T12:10:09;11.87;;;7.73;;
6665;SDS011;3369;49.906;8.598;2024-01-15T12:15:04;12.20;;;7.60;;
6665;SDS011;3369;49.906;8.598;2024-01-15T12:17:30;9.10;;;6.90;;
6665;SDS011;3369;49.906;8.598;2024-01-15T12:19:56;11.33;;;7.63;;
6665;SDS011;3369;49.906;8.598;2024-01-15T12:22:22;10.37;;;7.20;;
6665;SDS011;3369;49.906;8.598;2024-01-15T12:24:48;9.93;;;7.37;;
6665;SDS011;3369;49.906;8.598;2024-01-15T12:27:13;12.30;;;8.03;;
6665;SDS011;3369;49.906;8.598;2024-01-15T12:29:39;12.90;;;8.57;;
6665;SDS011;3369;49.906;8.598;2024-01-15T12:32:05;12.60;;;8.03;;
6665;SDS011;3369;49.906;8.598;2024-01-15T12:34:32;12.17;;;7.13;;
6665;SDS011;3369;49.906;8.598;2024-01-15T12:36:57;11.87;;;7.37;;
6665;SDS011;3369;49.906;8.598;2024-01-15T12:39:24;12.33;;;7.90;;
6665;SDS011;3369;49.906;8.598;2024-01-15T12:41:50;11.77;;;8.10;;
6665;SDS011;3369;49.906;8.598;2024-01-15T12:44:16;10.80;;;6.83;;
6665;SDS011;3369;49.906;8.598;2024-01-15T12:46:42;11.73;;;7.37;;
6665;SDS011;3369;49.906;8.598;2024-01-15T12:49:08;11.43;;;7.43;;
6665;SDS011;3369;49.906;8.598;2024-01-15T12:51:34;11.20;;;8.33;;
6665;SDS011;3369;49.906;8.598;2024-01-15T12:54:00;11.17;;;7.60;;
6665;SDS011;3369;49.906;8.598;2024-01-15T12:56:25;10.90;;;7.47;;
6665;SDS011;3369;49.906;8.598;2024-01-15T12:58:51;12.40;;;8.07;;
6665;SDS011;3369;49.906;8.598;2024-01-15T13:01:17;10.70;;;7.50;;
6665;SDS011;3369;49.906;8.598;2024-01-15T13:03:43;11.20;;;7.53;;
6665;SDS011;3369;49.906;8.598;2024-01-15T13:06:08;12.27;;;8.00;;
6665;SDS011;3369;49.906;8.598;2024-01-15T13:08:34;12.97;;;7.50;;
6665;SDS011;3369;49.906;8.598;2024-01-15T13:11:00;9.23;;;6.53;;
6665;SDS011;3369;49.906;8.598;2024-01-15T13:13:26;8.20;;;6.63;;
6665;SDS011;3369;49.906;8.598;2024-01-15T13:15:52;12.97;;;8.43;;
6665;SDS011;3369;49.906;8.598;2024-01-15T13:18:18;9.93;;;7.80;;
6665;SDS011;3369;49.906;8.598;2024-01-15T13:20:43;10.00;;;7.13;;
6665;SDS011;3369;49.906;8.598;2024-01-15T13:23:11;11.63;;;7.67;;
6665;SDS011;3369;49.906;8.598;2024-01-15T13:25:36;9.10;;;7.03;;
6665;SDS011;3369;49.906;8.598;2024-01-15T13:28:04;11.73;;;7.10;;
6665;SDS011;3369;49.906;8.598;2024-01-15T13:30:30;11.50;;;6.70;;
6665;SDS011;3369;49.906;8.598;2024-01-15T13:32:56;9.00;;;6.60;;
6665;SDS011;3369;49.906;8.598;2024-01-15T13:35:22;10.50;;;5.80;;
6665;SDS011;3369;49.906;8.598;2024-01-15T13:37:48;7.90;;;6.07;;
6665;SDS011;3369;49.906;8.598;2024-01-15T13:40:14;8.47;;;6.13;;
6665;SDS011;3369;49.906;8.598;2024-01-15T13:42:45;9.03;;;5.73;;
6665;SDS011;3369;49.906;8.598;2024-01-15T13:45:11;11.20;;;6.90;;
6665;SDS011;3369;49.906;8.598;2024-01-15T13:47:39;6.93;;;5.77;;
6665;SDS011;3369;49.906;8.598;2024-01-15T13:50:07;9.63;;;6.27;;
6665;SDS011;3369;49.906;8.598;2024-01-15T13:52:33;14.43;;;6.80;;
6665;SDS011;3369;49.906;8.598;2024-01-15T13:54:59;10.20;;;7.50;;
6665;SDS011;3369;49.906;8.598;2024-01-15T13:57:25;8.33;;;5.77;;
6665;SDS011;3369;49.906;8.598;2024-01-15T13:59:50;9.67;;;5.20;;
6665;SDS011;3369;49.906;8.598;2024-01-15T14:02:16;8.13;;;6.03;;
6665;SDS011;3369;49.906;8.598;2024-01-15T14:04:42;6.90;;;5.47;;
6665;SDS011;3369;49.906;8.598;2024-01-15T14:07:07;7.43;;;5.70;;
6665;SDS011;3369;49.906;8.598;2024-01-15T14:09:33;7.90;;;5.53;;
6665;SDS011;3369;49.906;8.598;2024-01-15T14:11:59;8.60;;;5.93;;
6665;SDS011;3369;49.906;8.598;2024-01-15T14:14:25;8.03;;;4.90;;
6665;SDS011;3369;49.906;8.598;2024-01-15T14:16:51;8.37;;;5.60;;
6665;SDS011;3369;49.906;8.598;2024-01-15T14:19:16;6.07;;;5.10;;
6665;SDS011;3369;49.906;8.598;2024-01-15T14:21:43;7.43;;;5.20;;
6665;SDS011;3369;49.906;8.598;2024-01-15T14:24:08;6.83;;;5.00;;
6665;SDS011;3369;49.906;8.598;2024-01-15T14:26:34;6.93;;;5.00;;
6665;SDS011;3369;49.906;8.598;2024-01-15T14:29:00;7.23;;;5.17;;
6665;SDS011;3369;49.906;8.598;2024-01-15T14:31:26;6.77;;;4.83;;
6665;SDS011;3369;49.906;8.598;2024-01-15T14:33:53;7.83;;;5.57;;
6665;SDS011;3369;49.906;8.598;2024-01-15T14:36:20;7.97;;;5.17;;
6665;SDS011;3369;49.906;8.598;2024-01-15T14:38:46;8.13;;;4.60;;
6665;SDS011;3369;49.906;8.598;2024-01-15T14:41:11;7.03;;;4.87;;
6665;SDS011;3369;49.906;8.598;2024-01-15T14:43:38;6.33;;;4.80;;
6665;SDS011;3369;49.906;8.598;2024-01-15T14:46:03;6.30;;;4.17;;
6665;SDS011;3369;49.906;8.598;2024-01-15T14:48:29;5.57;;;4.63;;
6665;SDS011;3369;49.906;8.598;2024-01-15T14:50:55;5.47;;;4.03;;
6665;SDS011;3369;49.906;8.598;2024-01-15T14:53:20;6.30;;;3.90;;
6665;SDS011;3369;49.906;8.598;2024-01-15T14:55:46;7.43;;;4.80;;
6665;SDS011;3369;49.906;8.598;2024-01-15T14:58:12;6.03;;;4.03;;
6665;SDS011;3369;49.906;8.598;2024-01-15T15:00:38;6.23;;;4.40;;
6665;SDS011;3369;49.906;8.598;2024-01-15T15:03:03;8.53;;;4.53;;
6665;SDS011;3369;49.906;8.598;2024-01-15T15:05:29;5.73;;;4.27;;
6665;SDS011;3369;49.906;8.598;2024-01-15T15:07:55;4.90;;;3.70;;